createdAt,value
2023-03-12T00:01:30.716Z,14.60
2023-03-12T00:03:59.751Z,14.60
2023-03-12T00:06:28.842Z,14.50
2023-03-12T00:09:02.128Z,14.50
2023-03-12T00:11:31.029Z,14.40
2023-03-12T00:14:01.570Z,14.40
2023-03-12T00:16:30.658Z,14.40
2023-03-12T00:18:59.506Z,14.40
2023-03-12T00:21:28.627Z,14.30
2023-03-12T00:23:59.105Z,14.30
2023-03-12T00:26:28.199Z,14.30
2023-03-12T00:28:57.131Z,14.30
2023-03-12T00:31:28.502Z,14.30
2023-03-12T00:33:57.796Z,14.30
2023-03-12T00:36:29.068Z,14.40
2023-03-12T00:39:00.786Z,14.40
2023-03-12T00:41:31.475Z,14.40
2023-03-12T00:44:19.298Z,14.40
2023-03-12T00:46:48.568Z,14.30
2023-03-12T00:49:17.798Z,14.30
2023-03-12T00:51:46.828Z,14.30
2023-03-12T00:54:17.931Z,14.30
2023-03-12T00:57:05.757Z,14.20
2023-03-12T00:59:40.651Z,14.20
2023-03-12T01:02:10.604Z,14.20
2023-03-12T01:04:39.854Z,14.20
2023-03-12T01:07:09.232Z,14.10
2023-03-12T01:09:39.530Z,14.10
2023-03-12T01:12:09.020Z,14.10
2023-03-12T01:14:40.581Z,14.10
2023-03-12T01:17:10.751Z,14.00
2023-03-12T01:19:39.775Z,14.00
2023-03-12T01:22:08.758Z,14.00
2023-03-12T01:24:39.413Z,14.00
2023-03-12T01:27:08.348Z,14.00
2023-03-12T01:29:37.425Z,14.00
2023-03-12T01:32:06.895Z,14.00
2023-03-12T01:34:36.751Z,14.00
2023-03-12T01:37:05.668Z,14.00
2023-03-12T01:39:34.551Z,14.00
2023-03-12T01:42:05.279Z,14.00
2023-03-12T01:44:55.237Z,13.90
2023-03-12T01:47:25.072Z,13.90
2023-03-12T01:49:55.786Z,13.90
2023-03-12T01:52:28.546Z,13.90
2023-03-12T01:55:03.184Z,13.90
2023-03-12T01:57:38.507Z,13.90
2023-03-12T02:00:14.439Z,13.90
2023-03-12T02:02:46.217Z,13.90
2023-03-12T02:05:26.903Z,13.90
2023-03-12T02:07:56.321Z,13.90
2023-03-12T02:10:26.456Z,13.90
2023-03-12T02:12:56.923Z,13.80
2023-03-12T02:15:25.948Z,13.80
2023-03-12T02:17:55.433Z,13.80
2023-03-12T02:20:31.077Z,13.80
2023-03-12T02:23:07.905Z,13.70
2023-03-12T02:25:41.772Z,13.70
2023-03-12T02:28:14.483Z,13.70
2023-03-12T02:30:47.546Z,13.70
2023-03-12T02:33:17.485Z,13.70
2023-03-12T02:36:05.432Z,13.80
2023-03-12T02:38:43.235Z,13.80
2023-03-12T02:41:20.654Z,13.80
2023-03-12T02:43:53.574Z,13.80
2023-03-12T02:46:22.882Z,13.80
2023-03-12T02:48:52.119Z,13.80
2023-03-12T02:51:21.188Z,13.80
2023-03-12T02:53:54.986Z,13.80
2023-03-12T02:56:27.565Z,13.80
2023-03-12T02:58:57.046Z,13.80
2023-03-12T03:01:27.234Z,13.70
2023-03-12T03:03:56.824Z,13.70
2023-03-12T03:06:25.724Z,13.70
2023-03-12T03:08:56.277Z,13.70
2023-03-12T03:11:26.876Z,13.70
2023-03-12T03:13:57.933Z,13.60
2023-03-12T03:16:27.299Z,13.60
2023-03-12T03:18:56.188Z,13.50
2023-03-12T03:21:25.201Z,13.50
2023-03-12T03:23:54.247Z,13.50
2023-03-12T03:26:25.853Z,13.40
2023-03-12T03:28:56.014Z,13.40
2023-03-12T03:31:25.326Z,13.40
2023-03-12T03:33:54.378Z,13.40
2023-03-12T03:36:25.854Z,13.30
2023-03-12T03:39:05.817Z,13.30
2023-03-12T03:41:36.399Z,13.20
2023-03-12T03:44:05.660Z,13.20
2023-03-12T03:46:36.752Z,13.20
2023-03-12T03:49:08.793Z,13.20
2023-03-12T03:51:42.220Z,13.10
2023-03-12T03:54:13.167Z,13.10
2023-03-12T03:56:44.755Z,13.10
2023-03-12T03:59:14.043Z,13.10
2023-03-12T04:01:44.404Z,13.10
2023-03-12T04:04:13.897Z,13.10
2023-03-12T04:06:42.913Z,13.10
2023-03-12T04:09:12.191Z,13.20
2023-03-12T04:11:44.060Z,13.20
2023-03-12T04:14:15.003Z,13.20
2023-03-12T04:16:50.945Z,13.20
2023-03-12T04:19:19.961Z,13.20
2023-03-12T04:21:49.083Z,13.20
2023-03-12T04:24:18.792Z,13.20
2023-03-12T04:26:49.240Z,13.20
2023-03-12T04:29:22.038Z,13.30
2023-03-12T04:31:54.887Z,13.30
2023-03-12T04:34:24.128Z,13.30
2023-03-12T04:36:54.917Z,13.30
2023-03-12T04:39:24.462Z,13.30
2023-03-12T04:41:56.179Z,13.30
2023-03-12T04:44:30.423Z,13.30
2023-03-12T04:47:17.678Z,13.30
2023-03-12T04:49:47.664Z,13.30
2023-03-12T04:52:34.951Z,13.30
2023-03-12T04:55:04.270Z,13.30
2023-03-12T04:57:53.019Z,13.20
2023-03-12T05:00:22.444Z,13.20
2023-03-12T05:02:51.525Z,13.20
2023-03-12T05:05:20.410Z,13.20
2023-03-12T05:07:49.373Z,13.20
2023-03-12T05:10:18.698Z,13.20
2023-03-12T05:12:47.632Z,13.20
2023-03-12T05:15:18.894Z,13.20
2023-03-12T05:17:48.258Z,13.20
2023-03-12T05:20:18.238Z,13.20
2023-03-12T05:22:49.151Z,13.20
2023-03-12T05:25:18.878Z,13.20
2023-03-12T05:27:47.870Z,13.20
2023-03-12T05:30:19.819Z,13.30
2023-03-12T05:32:49.245Z,13.30
2023-03-12T05:35:18.535Z,13.30
2023-03-12T05:37:48.357Z,13.30
2023-03-12T05:40:17.669Z,13.40
2023-03-12T05:42:47.308Z,13.40
2023-03-12T05:45:16.332Z,13.40
2023-03-12T05:47:50.676Z,13.40
2023-03-12T05:50:20.493Z,13.40
2023-03-12T05:52:49.484Z,13.50
2023-03-12T05:55:18.650Z,13.50
2023-03-12T05:57:47.536Z,13.50
2023-03-12T06:00:18.031Z,13.50
2023-03-12T06:02:56.669Z,13.60
2023-03-12T06:05:25.991Z,13.50
2023-03-12T06:07:55.022Z,13.60
2023-03-12T06:10:23.884Z,13.60
2023-03-12T06:12:52.852Z,13.60
2023-03-12T06:15:21.790Z,13.60
2023-03-12T06:17:50.882Z,13.60
2023-03-12T06:20:21.617Z,13.60
2023-03-12T06:23:09.340Z,13.60
2023-03-12T06:25:38.417Z,13.60
2023-03-12T06:28:07.351Z,13.60
2023-03-12T06:30:36.328Z,13.60
2023-03-12T06:33:07.394Z,13.60
2023-03-12T06:35:38.024Z,13.60
2023-03-12T06:38:26.021Z,13.50
2023-03-12T06:40:59.465Z,13.40
2023-03-12T06:43:30.443Z,13.40
2023-03-12T06:46:00.873Z,13.40
2023-03-12T06:48:33.628Z,13.30
2023-03-12T06:51:04.329Z,13.30
2023-03-12T06:53:33.855Z,13.20
2023-03-12T06:56:02.935Z,13.20
2023-03-12T06:58:32.617Z,13.20
2023-03-12T07:01:01.847Z,13.10
2023-03-12T07:03:30.699Z,13.10
2023-03-12T07:05:59.953Z,13.10
2023-03-12T07:08:31.381Z,13.00
2023-03-12T07:11:02.233Z,12.90
2023-03-12T07:13:31.431Z,12.90
2023-03-12T07:16:06.004Z,12.80
2023-03-12T07:18:35.705Z,12.70
2023-03-12T07:21:04.816Z,12.60
2023-03-12T07:23:35.046Z,12.50
2023-03-12T07:26:06.184Z,12.40
2023-03-12T07:28:35.566Z,12.30
2023-03-12T07:31:05.621Z,12.20
2023-03-12T07:33:35.098Z,12.10
2023-03-12T07:36:04.786Z,12.10
2023-03-12T07:38:35.329Z,12.00
2023-03-12T07:41:04.382Z,12.00
2023-03-12T07:43:33.368Z,12.00
2023-03-12T07:46:02.420Z,11.90
2023-03-12T07:48:31.454Z,11.90
2023-03-12T07:51:00.425Z,11.90
2023-03-12T07:53:29.494Z,11.90
2023-03-12T07:56:00.172Z,11.90
2023-03-12T07:58:37.774Z,11.90
2023-03-12T08:01:09.704Z,11.90
2023-03-12T08:03:39.284Z,11.90
2023-03-12T08:06:08.501Z,11.90
2023-03-12T08:08:38.581Z,12.00
2023-03-12T08:11:10.043Z,12.00
2023-03-12T08:13:38.958Z,12.00
2023-03-12T08:16:09.510Z,12.00
2023-03-12T08:18:38.785Z,12.00
2023-03-12T08:21:07.971Z,12.00
2023-03-12T08:23:37.023Z,12.00
2023-03-12T08:26:06.183Z,12.00
2023-03-12T08:28:38.153Z,12.00
2023-03-12T08:31:07.695Z,12.00
2023-03-12T08:33:36.669Z,12.00
2023-03-12T08:36:06.073Z,12.00
2023-03-12T08:38:35.163Z,12.00
2023-03-12T08:41:04.151Z,12.00
2023-03-12T08:43:33.094Z,12.00
2023-03-12T08:46:04.819Z,12.00
2023-03-12T08:48:39.258Z,12.10
2023-03-12T08:51:10.163Z,12.10
2023-03-12T08:53:40.834Z,12.10
2023-03-12T08:56:10.220Z,12.10
2023-03-12T08:58:39.714Z,12.00
2023-03-12T09:01:14.127Z,12.00
2023-03-12T09:03:43.953Z,11.90
2023-03-12T09:06:17.101Z,11.90
2023-03-12T09:08:47.234Z,11.90
2023-03-12T09:11:17.043Z,11.80
2023-03-12T09:14:14.939Z,11.70
2023-03-12T09:16:36.793Z,11.70
2023-03-12T09:19:06.528Z,11.60
2023-03-12T09:21:35.623Z,11.60
2023-03-12T09:24:04.625Z,11.60
2023-03-12T09:26:33.557Z,11.60
2023-03-12T09:29:02.538Z,11.60
2023-03-12T09:31:31.406Z,11.60
2023-03-12T09:34:01.879Z,11.60
2023-03-12T09:36:30.788Z,11.50
2023-03-12T09:38:59.669Z,11.20
2023-03-12T09:41:31.892Z,11.40
2023-03-12T09:44:05.060Z,11.30
2023-03-12T09:46:40.331Z,11.20
2023-03-12T09:49:18.555Z,11.20
2023-03-12T09:51:52.697Z,11.10
2023-03-12T09:54:29.729Z,11.10
2023-03-12T09:57:02.058Z,11.10
2023-03-12T09:59:31.327Z,11.00
2023-03-12T10:02:02.989Z,11.00
2023-03-12T10:04:58.074Z,10.90
2023-03-12T10:07:34.024Z,10.90
2023-03-12T10:10:17.390Z,10.80
2023-03-12T10:13:00.636Z,10.80
2023-03-12T10:15:39.337Z,10.80
2023-03-12T10:18:20.101Z,10.70
2023-03-12T10:20:58.078Z,10.70
2023-03-12T10:23:43.270Z,10.60
2023-03-12T10:26:17.578Z,10.60
2023-03-12T10:28:50.583Z,10.60
2023-03-12T10:31:24.045Z,10.60
2023-03-12T10:33:57.447Z,10.70
2023-03-12T10:36:35.732Z,10.70
2023-03-12T10:39:05.500Z,10.70
2023-03-12T10:41:36.217Z,10.70
2023-03-12T10:44:09.616Z,10.70
2023-03-12T10:46:52.058Z,10.80
2023-03-12T10:49:33.014Z,10.80
2023-03-12T10:52:06.556Z,10.80
2023-03-12T10:54:38.104Z,10.80
2023-03-12T10:57:07.889Z,10.80
2023-03-12T10:59:38.904Z,10.80
2023-03-12T11:02:32.249Z,10.80
2023-03-12T11:05:02.631Z,10.80
2023-03-12T11:07:35.985Z,10.80
2023-03-12T11:10:19.951Z,10.90
2023-03-12T11:13:01.960Z,10.90
2023-03-12T11:15:40.158Z,10.90
2023-03-12T11:18:32.284Z,10.90
2023-03-12T11:21:16.652Z,10.90
2023-03-12T11:24:07.497Z,10.80
2023-03-12T11:26:41.494Z,10.80
2023-03-12T11:29:36.422Z,10.80
2023-03-12T11:32:14.759Z,10.80
2023-03-12T11:34:48.557Z,10.90
2023-03-12T11:37:50.668Z,10.90
2023-03-12T11:40:32.760Z,10.90
2023-03-12T11:43:20.663Z,11.00
2023-03-12T11:46:12.052Z,11.00
2023-03-12T11:48:53.539Z,11.00
2023-03-12T11:51:32.420Z,11.00
2023-03-12T11:54:29.012Z,11.00
2023-03-12T11:57:03.174Z,11.00
2023-03-12T11:59:52.193Z,11.10
2023-03-12T12:02:38.434Z,11.10
2023-03-12T12:05:42.930Z,11.10
2023-03-12T12:08:25.448Z,11.10
2023-03-12T12:11:03.846Z,11.10
2023-03-12T12:13:41.513Z,11.10
2023-03-12T12:16:29.199Z,11.10
2023-03-12T12:19:11.967Z,11.10
2023-03-12T12:21:54.029Z,11.10
2023-03-12T12:24:39.299Z,11.10
2023-03-12T12:27:19.304Z,11.10
2023-03-12T12:30:06.348Z,11.10
2023-03-12T12:32:57.496Z,11.10
2023-03-12T12:35:33.160Z,11.10
2023-03-12T12:38:05.621Z,11.00
2023-03-12T12:40:39.447Z,11.00
2023-03-12T12:43:24.425Z,11.00
2023-03-12T12:45:57.173Z,11.00
2023-03-12T12:48:31.022Z,11.00
2023-03-12T12:51:02.424Z,11.00
2023-03-12T12:53:40.690Z,11.00
2023-03-12T12:56:16.857Z,11.00
2023-03-12T12:59:15.800Z,10.90
2023-03-12T13:01:46.546Z,11.00
2023-03-12T13:04:21.934Z,11.00
2023-03-12T13:07:04.014Z,11.00
2023-03-12T13:09:43.619Z,11.00
2023-03-12T13:12:21.462Z,11.00
2023-03-12T13:14:51.664Z,11.00
2023-03-12T13:17:34.716Z,11.10
2023-03-12T13:20:15.751Z,11.10
2023-03-12T13:23:01.548Z,11.20
2023-03-12T13:25:46.475Z,11.20
2023-03-12T13:28:42.067Z,11.30
2023-03-12T13:31:37.358Z,11.30
2023-03-12T13:34:46.283Z,11.40
2023-03-12T13:37:56.655Z,11.50
2023-03-12T13:40:41.027Z,11.50
2023-03-12T13:43:14.025Z,11.50
2023-03-12T13:45:56.626Z,11.50
2023-03-12T13:48:26.719Z,11.60
2023-03-12T13:51:00.382Z,11.60
2023-03-12T13:53:34.769Z,11.60
2023-03-12T13:56:09.452Z,11.60
2023-03-12T13:58:45.634Z,11.40
2023-03-12T14:01:20.013Z,11.60
2023-03-12T14:03:52.168Z,11.50
2023-03-12T14:06:24.333Z,11.50
2023-03-12T14:09:11.043Z,11.40
2023-03-12T14:11:57.837Z,11.40
2023-03-12T14:15:04.608Z,11.30
2023-03-12T14:17:36.059Z,11.30
2023-03-12T14:20:07.589Z,11.30
2023-03-12T14:22:40.251Z,11.20
2023-03-12T14:25:15.922Z,11.20
2023-03-12T14:28:05.084Z,11.20
2023-03-12T14:30:44.304Z,11.20
2023-03-12T14:33:16.066Z,11.20
2023-03-12T14:35:50.777Z,11.20
2023-03-12T14:38:27.763Z,11.10
2023-03-12T14:41:02.155Z,11.10
2023-03-12T14:43:32.882Z,11.10
2023-03-12T14:46:03.878Z,11.10
2023-03-12T14:48:34.977Z,11.10
2023-03-12T14:51:05.901Z,11.00
2023-03-12T14:53:38.413Z,11.10
2023-03-12T14:56:13.497Z,11.00
2023-03-12T14:58:46.795Z,11.00
2023-03-12T15:01:19.291Z,11.00
2023-03-12T15:03:52.024Z,11.00
2023-03-12T15:06:26.326Z,10.90
2023-03-12T15:08:57.191Z,10.90
2023-03-12T15:11:29.011Z,10.90
2023-03-12T15:14:04.502Z,10.80
2023-03-12T15:16:34.211Z,10.80
2023-03-12T15:19:04.584Z,10.80
2023-03-12T15:21:35.084Z,10.80
2023-03-12T15:24:07.343Z,10.70
2023-03-12T15:26:38.852Z,10.70
2023-03-12T15:29:26.876Z,10.60
2023-03-12T15:31:58.153Z,10.60
2023-03-12T15:34:33.421Z,10.60
2023-03-12T15:37:04.895Z,10.50
2023-03-12T15:39:38.346Z,10.50
2023-03-12T15:42:11.564Z,10.40
2023-03-12T15:44:46.802Z,10.40
2023-03-12T15:47:18.579Z,10.40
2023-03-12T15:49:53.169Z,10.40
2023-03-12T15:52:31.727Z,10.40
2023-03-12T15:55:26.631Z,10.30
2023-03-12T15:57:57.439Z,10.30
2023-03-12T16:00:29.448Z,10.30
2023-03-12T16:03:00.206Z,10.30
2023-03-12T16:05:33.408Z,10.20
2023-03-12T16:08:04.068Z,10.20
2023-03-12T16:10:53.620Z,10.20
2023-03-12T16:13:26.748Z,10.20
2023-03-12T16:15:56.451Z,10.20
2023-03-12T16:18:25.865Z,10.10
2023-03-12T16:20:55.302Z,10.10
2023-03-12T16:23:24.289Z,10.10
2023-03-12T16:25:56.691Z,10.10
2023-03-12T16:28:27.254Z,10.00
2023-03-12T16:30:56.153Z,10.00
2023-03-12T16:33:26.274Z,10.00
2023-03-12T16:35:55.917Z,10.00
2023-03-12T16:38:26.113Z,9.90
2023-03-12T16:41:18.149Z,9.90
2023-03-12T16:43:49.957Z,9.90
2023-03-12T16:46:22.196Z,9.80
2023-03-12T16:48:54.146Z,9.80
2023-03-12T16:51:24.077Z,9.80
2023-03-12T16:54:07.375Z,9.80
2023-03-12T16:56:42.688Z,9.70
2023-03-12T16:59:21.537Z,9.70
2023-03-12T17:01:50.839Z,9.70
2023-03-12T17:04:19.999Z,9.70
2023-03-12T17:06:48.966Z,9.60
2023-03-12T17:09:17.940Z,9.60
2023-03-12T17:11:51.451Z,9.60
2023-03-12T17:14:23.499Z,9.60
2023-03-12T17:16:52.585Z,9.60
2023-03-12T17:19:21.505Z,9.50
2023-03-12T17:21:51.030Z,9.50
2023-03-12T17:24:20.024Z,9.50
2023-03-12T17:26:52.317Z,9.60
2023-03-12T17:29:21.649Z,9.50
2023-03-12T17:31:50.505Z,9.50
2023-03-12T17:34:19.507Z,9.60
2023-03-12T17:36:49.934Z,9.60
2023-03-12T17:39:18.985Z,9.60
2023-03-12T17:41:47.834Z,9.60
2023-03-12T17:44:18.839Z,9.60
2023-03-12T17:46:58.905Z,9.50
2023-03-12T17:49:28.867Z,9.50
2023-03-12T17:51:57.944Z,9.60
2023-03-12T17:54:26.874Z,9.60
2023-03-12T17:56:55.959Z,9.60
2023-03-12T17:59:27.438Z,9.60
2023-03-12T18:01:56.528Z,9.60
2023-03-12T18:04:25.709Z,9.60
2023-03-12T18:06:54.972Z,9.60
2023-03-12T18:09:23.970Z,9.60
2023-03-12T18:11:53.114Z,9.60
2023-03-12T18:14:22.280Z,9.60
2023-03-12T18:16:53.820Z,9.60
2023-03-12T18:19:24.344Z,9.60
2023-03-12T18:21:53.726Z,9.50
2023-03-12T18:24:22.567Z,9.50
2023-03-12T18:26:53.928Z,9.50
2023-03-12T18:29:23.160Z,9.50
2023-03-12T18:31:53.731Z,9.50
2023-03-12T18:34:23.774Z,9.50
2023-03-12T18:36:52.868Z,9.50
2023-03-12T18:39:22.179Z,9.50
2023-03-12T18:41:51.750Z,9.50
2023-03-12T18:44:20.910Z,9.50
2023-03-12T18:46:51.165Z,9.50
2023-03-12T18:49:21.874Z,9.50
2023-03-12T18:51:54.757Z,9.40
2023-03-12T18:54:42.008Z,9.40
2023-03-12T18:57:12.726Z,9.40
2023-03-12T18:59:45.443Z,9.40
2023-03-12T19:02:14.586Z,9.40
2023-03-12T19:04:45.965Z,9.40
2023-03-12T19:07:15.314Z,9.40
2023-03-12T19:09:44.743Z,9.40
2023-03-12T19:12:13.712Z,9.40
2023-03-12T19:14:42.892Z,9.40
2023-03-12T19:17:11.792Z,9.40
2023-03-12T19:19:40.763Z,9.40
2023-03-12T19:22:11.480Z,9.40
2023-03-12T19:24:44.161Z,9.40
2023-03-12T19:27:13.394Z,9.40
2023-03-12T19:29:42.520Z,9.40
2023-03-12T19:32:11.398Z,9.40
2023-03-12T19:34:40.601Z,9.40
2023-03-12T19:37:11.209Z,9.40
2023-03-12T19:39:40.810Z,9.40
2023-03-12T19:42:09.876Z,9.40
2023-03-12T19:44:44.696Z,9.40
2023-03-12T19:47:15.634Z,9.40
2023-03-12T19:49:47.576Z,9.40
2023-03-12T19:52:19.519Z,9.40
2023-03-12T19:55:01.573Z,9.40
2023-03-12T19:57:32.629Z,9.40
2023-03-12T20:00:01.574Z,9.40
2023-03-12T20:02:33.283Z,9.40
2023-03-12T20:05:02.812Z,9.40
2023-03-12T20:07:33.298Z,9.40
2023-03-12T20:10:02.294Z,9.40
2023-03-12T20:12:31.204Z,9.40
2023-03-12T20:15:00.195Z,9.40
2023-03-12T20:17:29.431Z,9.40
2023-03-12T20:19:58.760Z,9.40
2023-03-12T20:22:28.102Z,9.40
2023-03-12T20:24:58.603Z,9.40
2023-03-12T20:27:27.868Z,9.40
2023-03-12T20:29:56.688Z,9.40
2023-03-12T20:32:26.753Z,9.40
2023-03-12T20:34:55.973Z,9.40
2023-03-12T20:37:25.339Z,9.40
2023-03-12T20:40:00.473Z,9.40
2023-03-12T20:42:29.970Z,9.40
2023-03-12T20:44:58.866Z,9.40
2023-03-12T20:47:35.325Z,9.40
2023-03-12T20:50:04.955Z,9.40
2023-03-12T20:52:33.988Z,9.40
2023-03-12T20:55:08.730Z,9.40
2023-03-12T20:57:38.367Z,9.40
2023-03-12T21:00:08.608Z,9.50
2023-03-12T21:02:37.565Z,9.50
2023-03-12T21:05:07.379Z,9.50
2023-03-12T21:07:36.171Z,9.50
2023-03-12T21:10:07.361Z,9.50
2023-03-12T21:12:36.458Z,9.50
2023-03-12T21:15:07.561Z,9.50
2023-03-12T21:17:38.228Z,9.50
2023-03-12T21:20:19.483Z,9.50
2023-03-12T21:22:48.709Z,9.50
2023-03-12T21:25:19.258Z,9.50
2023-03-12T21:27:51.476Z,9.50
2023-03-12T21:30:21.016Z,9.50
2023-03-12T21:32:49.987Z,9.50
2023-03-12T21:35:26.401Z,9.50
2023-03-12T21:38:02.756Z,9.50
2023-03-12T21:40:33.588Z,9.50
2023-03-12T21:43:02.628Z,9.50
2023-03-12T21:45:31.773Z,9.50
2023-03-12T21:48:00.776Z,9.50
2023-03-12T21:50:29.732Z,9.50
2023-03-12T21:52:58.729Z,9.50
2023-03-12T21:55:27.665Z,9.50
2023-03-12T21:57:57.904Z,9.50
2023-03-12T22:00:27.148Z,9.50
2023-03-12T22:02:56.018Z,9.50
2023-03-12T22:05:24.929Z,9.50
2023-03-12T22:07:54.075Z,9.50
2023-03-12T22:10:22.946Z,9.50
2023-03-12T22:12:51.863Z,9.70
2023-03-12T22:15:27.831Z,9.50
2023-03-12T22:18:17.703Z,9.50
2023-03-12T22:20:53.113Z,9.50
2023-03-12T22:23:23.450Z,9.50
2023-03-12T22:25:52.966Z,9.40
2023-03-12T22:28:23.773Z,9.40
2023-03-12T22:31:00.413Z,9.50
2023-03-12T22:33:33.966Z,9.50
2023-03-12T22:36:21.563Z,9.40
2023-03-12T22:38:50.822Z,9.40
2023-03-12T22:41:21.293Z,9.40
2023-03-12T22:43:51.569Z,9.40
2023-03-12T22:46:34.730Z,9.40
2023-03-12T22:49:05.338Z,9.40
2023-03-12T22:51:35.232Z,9.30
2023-03-12T22:54:04.700Z,9.30
2023-03-12T22:56:33.687Z,9.30
2023-03-12T22:59:02.577Z,9.30
2023-03-12T23:01:32.923Z,9.30
2023-03-12T23:04:04.229Z,9.30
2023-03-12T23:06:33.561Z,9.20
2023-03-12T23:09:02.512Z,9.20
2023-03-12T23:11:31.567Z,9.20
2023-03-12T23:14:00.559Z,9.20
2023-03-12T23:16:29.720Z,9.20
2023-03-12T23:19:00.826Z,9.20
2023-03-12T23:21:30.287Z,9.20
2023-03-12T23:24:01.878Z,9.20
2023-03-12T23:26:31.090Z,9.20
2023-03-12T23:29:00.946Z,9.20
2023-03-12T23:31:31.236Z,9.20
2023-03-12T23:34:01.745Z,9.20
2023-03-12T23:36:30.735Z,9.20
2023-03-12T23:38:59.644Z,9.10
2023-03-12T23:41:30.643Z,9.20
2023-03-12T23:44:00.341Z,9.20
2023-03-12T23:46:29.815Z,9.20
2023-03-12T23:49:00.671Z,9.20
2023-03-12T23:51:31.019Z,9.20
2023-03-12T23:54:01.437Z,9.20
2023-03-12T23:56:34.972Z,9.20
2023-03-12T23:59:04.882Z,9.20
